KMHS/MHS METAR and TAF weather

Enter ICAO airport designator
Station Type Date Time Source
KMHS METAR 2021/04/18 02:56 UTC NOAA

KMHS 180256Z AUTO 00000KT 10SM CLR 16/M04 A3016 RMK AO2 SLP223 T01561044 53006 $


Station Type Date Time Source
KMHS Decoded METAR 2021/04/18 02:56 UTC NOAA

MOUNT SHASTA, CA, United States (KMHS) 41-19N 122-19W 1078M
Apr 17, 2021 - 10:56 PM EDT / 2021.04.18 0256 UTC
Wind: Calm:0
Visibility: 10 mile(s):0
Sky conditions: clear
Temperature: 60.1 F (15.6 C)
Dew Point: 24.1 F (-4.4 C)
Relative Humidity: 24%
Pressure (altimeter): 30.16 in. Hg (1021 hPa)
Pressure tendency: 0.02 inches (0.6 hPa) higher than three hours ago
ob: KMHS 180256Z AUTO 00000KT 10SM CLR 16/M04 A3016 RMK AO2 SLP223 T01561044 53006
cycle: 3

Station Type Date Time Source
KMHS TAF UTC NOAA

Error!

Example: see airport list